createdAt,value
2019-04-06T00:00:39.495Z,68.07
2019-04-06T00:03:07.928Z,68.08
2019-04-06T00:05:36.448Z,68.10
2019-04-06T00:08:05.119Z,68.18
2019-04-06T00:10:33.549Z,68.24
2019-04-06T00:13:02.053Z,68.22
2019-04-06T00:15:30.371Z,68.11
2019-04-06T00:17:58.741Z,68.11
2019-04-06T00:20:27.153Z,68.30
2019-04-06T00:22:55.516Z,68.42
2019-04-06T00:25:24.090Z,68.42
2019-04-06T00:27:52.474Z,68.47
2019-04-06T00:30:20.965Z,68.54
2019-04-06T00:32:59.506Z,68.66
2019-04-06T00:35:27.949Z,68.63
2019-04-06T00:37:56.333Z,68.86
2019-04-06T00:40:24.745Z,68.86
2019-04-06T00:42:53.101Z,68.40
2019-04-06T00:45:21.745Z,68.40
2019-04-06T00:47:50.141Z,68.77
2019-04-06T00:50:18.676Z,68.63
2019-04-06T00:52:46.985Z,68.63
2019-04-06T00:55:15.380Z,68.78
2019-04-06T00:57:43.826Z,68.77
2019-04-06T01:00:12.636Z,68.72
2019-04-06T01:02:41.020Z,68.68
2019-04-06T01:05:09.485Z,68.94
2019-04-06T01:07:37.977Z,69.02
2019-04-06T01:10:06.455Z,69.02
2019-04-06T01:12:34.855Z,68.92
2019-04-06T01:15:03.633Z,68.79
2019-04-06T01:17:32.077Z,68.79
2019-04-06T01:20:00.485Z,68.87
2019-04-06T01:22:28.872Z,68.74
2019-04-06T01:24:57.214Z,68.74
2019-04-06T01:27:25.589Z,68.74
2019-04-06T01:29:54.041Z,68.74
2019-04-06T01:32:22.536Z,68.63
2019-04-06T01:34:50.934Z,68.63
2019-04-06T01:37:19.248Z,68.62
2019-04-06T01:39:47.573Z,68.86
2019-04-06T01:42:16.023Z,69.08
2019-04-06T01:44:44.379Z,69.08
2019-04-06T01:47:12.732Z,69.00
2019-04-06T01:49:41.120Z,69.00
2019-04-06T01:52:09.492Z,68.84
2019-04-06T01:54:37.831Z,68.74
2019-04-06T01:57:06.295Z,68.74
2019-04-06T01:59:34.665Z,68.73
2019-04-06T02:02:10.564Z,68.76
2019-04-06T02:04:39.071Z,69.00
2019-04-06T02:07:07.612Z,69.06
2019-04-06T02:16:18.076Z,69.34
2019-04-06T02:19:16.928Z,69.19
2019-04-06T02:22:15.672Z,69.19
2019-04-06T02:25:17.538Z,69.02
2019-04-06T02:42:16.000Z,69.08
2019-04-06T02:45:17.950Z,69.00
2019-04-06T03:01:16.951Z,69.68
2019-04-06T03:10:18.529Z,70.18
2019-04-06T03:15:33.072Z,70.75
2019-04-06T03:18:16.729Z,70.84
2019-04-06T03:21:18.509Z,71.05
2019-04-06T03:24:17.332Z,71.15
2019-04-06T03:27:16.152Z,70.68
2019-04-06T03:30:17.961Z,70.68
2019-04-06T03:33:16.410Z,70.52
2019-04-06T03:36:14.868Z,70.52
2019-04-06T03:39:16.457Z,70.62
2019-04-06T03:42:18.254Z,70.59
2019-04-06T03:45:17.285Z,70.49
2019-04-06T03:48:16.037Z,70.42
2019-04-06T03:51:17.860Z,70.43
2019-04-06T03:54:18.354Z,70.50
2019-04-06T03:57:17.276Z,71.08
2019-04-06T04:00:16.321Z,71.08
2019-04-06T04:03:17.740Z,71.32
2019-04-06T04:06:16.620Z,71.66
2019-04-06T04:09:18.314Z,71.97
2019-04-06T04:12:18.637Z,72.07
2019-04-06T04:15:17.290Z,71.88
2019-04-06T04:18:16.434Z,71.90
2019-04-06T04:21:17.954Z,71.96
2019-04-06T04:24:16.802Z,71.71
2019-04-06T04:27:27.697Z,71.68
2019-04-06T04:30:30.745Z,71.62
2019-04-06T04:33:16.424Z,71.60
2019-04-06T04:35:44.824Z,71.51
2019-04-06T04:38:19.106Z,71.42
2019-04-06T04:41:17.580Z,71.45
2019-04-06T04:44:15.628Z,71.65
2019-04-06T04:46:44.536Z,71.86
2019-04-06T04:49:18.956Z,71.70
2019-04-06T04:51:47.684Z,71.64
2019-04-06T04:54:16.140Z,71.73
2019-04-06T04:56:44.527Z,71.70
2019-04-06T04:59:15.932Z,71.79
2019-04-06T05:01:44.311Z,71.79
2019-04-06T05:04:18.608Z,71.77
2019-04-06T05:06:46.975Z,71.90
2019-04-06T05:09:18.553Z,72.21
2019-04-06T05:11:48.953Z,72.31
2019-04-06T05:14:53.198Z,72.09
2019-04-06T05:17:21.530Z,72.11
2019-04-06T05:19:49.859Z,72.34
2019-04-06T05:22:18.297Z,72.57
2019-04-06T05:24:46.757Z,72.68
2019-04-06T05:27:15.221Z,72.68
2019-04-06T05:29:43.578Z,72.79
2019-04-06T05:32:12.152Z,72.88
2019-04-06T05:34:40.450Z,72.88
2019-04-06T05:37:08.790Z,72.95
2019-04-06T05:39:37.758Z,72.87
2019-04-06T05:42:06.210Z,72.71
2019-04-06T05:44:34.510Z,72.68
2019-04-06T05:47:03.034Z,72.50
2019-04-06T05:49:31.370Z,72.08
2019-04-06T05:52:01.721Z,72.27
2019-04-06T05:54:30.092Z,73.41
2019-04-06T05:56:58.365Z,73.50
2019-04-06T05:59:26.660Z,73.50
2019-04-06T06:01:55.058Z,73.00
2019-04-06T06:04:23.354Z,72.16
2019-04-06T06:06:51.714Z,71.25
2019-04-06T06:09:20.117Z,69.79
2019-04-06T06:11:48.610Z,68.36
2019-04-06T06:14:16.986Z,66.42
2019-04-06T06:16:45.328Z,64.71
2019-04-06T06:19:13.625Z,63.59
2019-04-06T06:21:42.087Z,62.19
2019-04-06T06:24:10.518Z,61.27
2019-04-06T06:26:38.853Z,60.32
2019-04-06T06:29:07.324Z,59.18
2019-04-06T06:31:35.665Z,58.24
2019-04-06T06:34:04.067Z,57.17
2019-04-06T06:36:32.434Z,56.58
2019-04-06T06:39:00.845Z,56.02
2019-04-06T06:41:28.964Z,54.85
2019-04-06T06:43:57.312Z,53.63
2019-04-06T06:46:25.743Z,53.04
2019-04-06T06:48:54.084Z,53.50
2019-04-06T06:51:22.672Z,53.46
2019-04-06T06:53:51.021Z,52.44
2019-04-06T06:56:19.347Z,51.12
2019-04-06T06:58:47.829Z,50.92
2019-04-06T07:01:16.196Z,51.75
2019-04-06T07:03:44.566Z,52.04
2019-04-06T07:06:12.952Z,52.44
2019-04-06T07:08:41.453Z,51.70
2019-04-06T07:11:09.690Z,51.46
2019-04-06T07:13:38.111Z,50.66
2019-04-06T07:16:06.562Z,49.98
2019-04-06T07:18:34.943Z,49.42
2019-04-06T07:21:03.306Z,49.55
2019-04-06T07:23:31.605Z,49.83
2019-04-06T07:25:59.932Z,50.65
2019-04-06T07:28:37.864Z,51.89
2019-04-06T07:30:58.314Z,52.83
2019-04-06T07:33:26.704Z,53.33
2019-04-06T07:35:55.068Z,54.04
2019-04-06T07:38:23.467Z,54.70
2019-04-06T07:40:51.839Z,55.34
2019-04-06T07:43:20.355Z,55.97
2019-04-06T07:45:48.655Z,56.36
2019-04-06T07:48:17.137Z,56.94
2019-04-06T07:50:46.113Z,57.14
2019-04-06T07:53:14.586Z,57.33
2019-04-06T07:55:42.951Z,57.80
2019-04-06T07:58:11.659Z,58.13
2019-04-06T08:00:40.000Z,58.06
2019-04-06T08:03:08.392Z,58.56
2019-04-06T08:05:36.906Z,58.59
2019-04-06T08:08:05.219Z,58.78
2019-04-06T08:10:33.724Z,58.71
2019-04-06T08:13:02.121Z,59.08
2019-04-06T08:15:30.513Z,59.08
2019-04-06T08:17:58.892Z,59.46
2019-04-06T08:20:27.206Z,60.13
2019-04-06T08:22:55.515Z,60.49
2019-04-06T08:25:23.841Z,60.46
2019-04-06T08:27:52.819Z,60.60
2019-04-06T08:30:21.236Z,60.74
2019-04-06T08:32:49.685Z,60.78
2019-04-06T08:35:25.098Z,60.79
2019-04-06T08:37:48.275Z,60.81
2019-04-06T08:40:16.688Z,60.62
2019-04-06T08:42:45.286Z,60.85
2019-04-06T08:45:14.238Z,60.53
2019-04-06T08:47:43.006Z,59.90
2019-04-06T08:50:11.569Z,60.05
2019-04-06T08:52:40.259Z,59.79
2019-04-06T08:55:08.648Z,59.81
2019-04-06T08:57:37.059Z,59.70
2019-04-06T09:00:07.365Z,58.97
2019-04-06T09:02:36.268Z,58.99
2019-04-06T09:05:06.459Z,59.22
2019-04-06T09:07:35.052Z,59.43
2019-04-06T09:10:05.039Z,59.48
2019-04-06T09:12:33.539Z,59.33
2019-04-06T09:15:02.025Z,59.36
2019-04-06T09:17:30.324Z,60.06
2019-04-06T09:19:58.799Z,59.69
2019-04-06T09:22:27.155Z,60.15
2019-04-06T09:24:55.616Z,60.09
2019-04-06T09:27:23.981Z,60.19
2019-04-06T09:29:52.379Z,59.73
2019-04-06T09:32:21.053Z,59.65
2019-04-06T09:34:49.724Z,59.40
2019-04-06T09:37:18.192Z,59.39
2019-04-06T09:39:46.987Z,59.16
2019-04-06T09:42:15.361Z,59.03
2019-04-06T09:44:47.005Z,58.73
2019-04-06T09:47:28.283Z,58.36
2019-04-06T09:49:57.854Z,58.23
2019-04-06T09:52:43.234Z,58.65
2019-04-06T09:55:13.220Z,58.87
2019-04-06T09:58:01.774Z,58.07
2019-04-06T10:00:37.485Z,58.49
2019-04-06T10:03:23.841Z,58.63
2019-04-06T10:05:56.517Z,57.99
2019-04-06T10:08:33.418Z,57.78
2019-04-06T10:11:19.673Z,57.36
2019-04-06T10:14:06.518Z,56.97
2019-04-06T10:16:39.537Z,55.02
2019-04-06T10:19:26.071Z,52.35
2019-04-06T10:22:05.170Z,53.52
2019-04-06T10:24:47.706Z,53.60
2019-04-06T10:27:36.433Z,52.47
2019-04-06T10:30:14.612Z,50.12
2019-04-06T10:32:47.423Z,50.50
2019-04-06T10:35:17.810Z,50.85
2019-04-06T10:38:03.733Z,50.08
2019-04-06T10:40:36.487Z,49.48
2019-04-06T10:43:10.111Z,50.39
2019-04-06T10:45:56.428Z,50.79
2019-04-06T10:48:32.554Z,52.16
2019-04-06T10:51:05.964Z,53.12
2019-04-06T10:53:52.552Z,53.85
2019-04-06T10:56:22.542Z,54.58
2019-04-06T10:59:07.686Z,54.84
2019-04-06T11:01:54.191Z,55.64
2019-04-06T11:04:24.291Z,56.23
2019-04-06T11:06:57.052Z,56.38
2019-04-06T11:09:32.921Z,56.73
2019-04-06T11:12:03.202Z,56.39
2019-04-06T11:14:39.181Z,56.30
2019-04-06T11:17:24.963Z,56.63
2019-04-06T11:19:55.481Z,56.73
2019-04-06T11:22:25.542Z,56.67
2019-04-06T11:25:10.890Z,57.00
2019-04-06T11:27:49.900Z,57.07
2019-04-06T11:30:22.903Z,56.07
2019-04-06T11:33:02.208Z,56.28
2019-04-06T11:35:40.790Z,56.25
2019-04-06T11:38:16.590Z,56.07
2019-04-06T11:41:03.059Z,56.16
2019-04-06T11:43:41.887Z,56.00
2019-04-06T11:46:20.931Z,56.10
2019-04-06T11:48:50.986Z,56.45
2019-04-06T11:51:37.611Z,56.33
2019-04-06T11:54:23.975Z,56.54
2019-04-06T11:57:10.093Z,56.04
2019-04-06T11:59:46.107Z,55.23
2019-04-06T12:02:25.653Z,54.73
2019-04-06T12:05:04.749Z,53.92
2019-04-06T12:07:46.834Z,54.62
2019-04-06T12:10:19.812Z,54.49
2019-04-06T12:13:02.314Z,54.44
2019-04-06T12:15:44.703Z,54.64
2019-04-06T12:18:17.476Z,54.62
2019-04-06T12:20:52.069Z,54.24
2019-04-06T12:23:38.785Z,54.00
2019-04-06T12:26:08.783Z,54.36
2019-04-06T12:28:50.986Z,54.32
2019-04-06T12:31:37.570Z,53.86
2019-04-06T12:34:16.428Z,54.22
2019-04-06T12:36:58.463Z,53.94
2019-04-06T12:39:28.424Z,54.09
2019-04-06T12:42:10.594Z,54.35
2019-04-06T12:44:40.624Z,54.25
2019-04-06T12:47:26.955Z,54.07
2019-04-06T12:50:09.088Z,53.94
2019-04-06T12:52:55.543Z,53.97
2019-04-06T12:55:26.499Z,53.30
2019-04-06T12:58:12.241Z,53.35
2019-04-06T13:00:54.518Z,52.63
2019-04-06T13:03:24.552Z,51.77
2019-04-06T13:06:11.213Z,52.04
2019-04-06T13:08:50.345Z,51.67
2019-04-06T13:11:20.324Z,51.87
2019-04-06T13:13:56.226Z,51.62
2019-04-06T13:16:32.017Z,51.07
2019-04-06T13:19:20.371Z,51.14
2019-04-06T13:21:56.443Z,49.85
2019-04-06T13:24:32.262Z,49.90
2019-04-06T13:27:02.342Z,50.39
2019-04-06T13:29:41.164Z,50.10
2019-04-06T13:32:26.207Z,49.50
2019-04-06T13:34:56.166Z,49.39
2019-04-06T13:37:38.094Z,49.56
2019-04-06T13:40:12.486Z,49.39
2019-04-06T13:42:57.286Z,49.37
2019-04-06T13:45:33.076Z,48.94
2019-04-06T13:48:14.874Z,48.81
2019-04-06T13:50:53.739Z,48.67
2019-04-06T13:53:23.690Z,49.06
2019-04-06T13:56:10.128Z,49.30
2019-04-06T13:58:40.129Z,49.28
2019-04-06T14:01:25.501Z,49.18
2019-04-06T14:04:01.613Z,49.23
2019-04-06T14:06:48.093Z,48.80
2019-04-06T14:09:23.930Z,49.41
2019-04-06T14:11:53.916Z,49.30
2019-04-06T14:14:43.535Z,49.05
2019-04-06T14:17:13.701Z,47.52
2019-04-06T14:19:49.714Z,47.40
2019-04-06T14:22:28.803Z,47.70
2019-04-06T14:25:07.729Z,47.76
2019-04-06T14:27:52.861Z,47.63
2019-04-06T14:30:38.788Z,47.90
2019-04-06T14:33:25.390Z,47.79
2019-04-06T14:36:10.971Z,48.05
2019-04-06T14:38:58.926Z,48.75
2019-04-06T14:41:35.313Z,48.26
2019-04-06T14:44:05.752Z,47.37
2019-04-06T14:46:35.887Z,46.27
2019-04-06T14:49:27.637Z,46.24
2019-04-06T14:51:50.393Z,46.29
2019-04-06T14:54:20.365Z,46.81
2019-04-06T14:57:06.946Z,46.17
2019-04-06T14:59:48.829Z,46.70
2019-04-06T15:02:24.810Z,47.19
2019-04-06T15:04:54.770Z,47.66
2019-04-06T15:07:36.965Z,47.78
2019-04-06T15:10:24.143Z,47.66
2019-04-06T15:13:10.987Z,47.92
2019-04-06T15:15:57.082Z,47.97
2019-04-06T15:18:43.085Z,48.07
2019-04-06T15:21:13.091Z,48.04
2019-04-06T15:23:43.136Z,47.96
2019-04-06T15:26:19.516Z,48.39
2019-04-06T15:28:53.014Z,48.33
2019-04-06T15:31:29.017Z,48.22
2019-04-06T15:34:05.292Z,48.34
2019-04-06T15:36:35.516Z,48.40
2019-04-06T15:39:10.736Z,48.45
2019-04-06T15:41:57.464Z,48.77
2019-04-06T15:44:40.548Z,48.98
2019-04-06T15:47:22.546Z,48.75
2019-04-06T15:49:58.630Z,48.98
2019-04-06T15:52:44.598Z,48.83
2019-04-06T15:55:31.157Z,49.00
2019-04-06T15:58:18.176Z,48.82
2019-04-06T16:00:48.485Z,49.05
2019-04-06T16:03:21.422Z,49.14
2019-04-06T16:05:58.205Z,49.49
2019-04-06T16:08:44.589Z,49.45
2019-04-06T16:11:20.806Z,49.24
2019-04-06T16:13:51.056Z,49.26
2019-04-06T16:16:21.166Z,49.24
2019-04-06T16:19:00.146Z,49.05
2019-04-06T16:21:42.125Z,48.84
2019-04-06T16:24:21.867Z,48.61
2019-04-06T16:26:55.192Z,48.84
2019-04-06T16:29:25.158Z,48.68
2019-04-06T16:31:55.129Z,48.57
2019-04-06T16:34:28.048Z,48.95
2019-04-06T16:37:12.074Z,48.59
2019-04-06T16:39:56.329Z,48.28
2019-04-06T16:42:43.036Z,48.45
2019-04-06T16:45:30.431Z,48.77
2019-04-06T16:48:20.320Z,48.91
2019-04-06T16:50:52.370Z,48.90
2019-04-06T16:53:26.893Z,48.89
2019-04-06T16:56:10.733Z,48.70
2019-04-06T16:58:57.252Z,48.94
2019-04-06T17:01:29.817Z,48.96
2019-04-06T17:04:08.244Z,49.13
2019-04-06T17:06:43.337Z,49.29
2019-04-06T17:09:34.800Z,49.26
2019-04-06T17:12:18.831Z,49.22
2019-04-06T17:14:56.247Z,49.49
2019-04-06T17:17:34.073Z,49.57
2019-04-06T17:20:08.240Z,49.42
2019-04-06T17:22:52.679Z,49.50
2019-04-06T17:25:27.128Z,49.72
2019-04-06T17:28:02.276Z,49.90
2019-04-06T17:30:36.386Z,49.90
2019-04-06T17:33:08.251Z,50.01
2019-04-06T17:35:39.495Z,50.15
2019-04-06T17:38:23.826Z,50.54
2019-04-06T17:41:10.356Z,50.72
2019-04-06T17:43:41.893Z,50.78
2019-04-06T17:46:13.059Z,50.94
2019-04-06T17:49:01.103Z,51.12
2019-04-06T17:51:39.402Z,51.15
2019-04-06T17:54:29.200Z,51.37
2019-04-06T17:57:09.652Z,51.51
2019-04-06T17:59:56.448Z,51.68
2019-04-06T18:02:27.591Z,51.78
2019-04-06T18:05:00.072Z,52.01
2019-04-06T18:07:33.846Z,52.14
2019-04-06T18:10:20.938Z,52.32
2019-04-06T18:12:52.790Z,52.48
2019-04-06T18:15:23.839Z,52.71
2019-04-06T18:17:54.960Z,52.88
2019-04-06T18:20:25.218Z,52.94
2019-04-06T18:22:55.642Z,53.17
2019-04-06T18:25:25.363Z,53.29
2019-04-06T18:27:55.542Z,53.36
2019-04-06T18:30:25.166Z,53.50
2019-04-06T18:33:01.267Z,53.64
2019-04-06T18:35:29.148Z,53.71
2019-04-06T18:38:00.591Z,53.76
2019-04-06T18:40:31.028Z,53.91
2019-04-06T18:43:00.965Z,54.03
2019-04-06T18:45:32.937Z,54.11
2019-04-06T18:48:03.405Z,54.27
2019-04-06T18:50:37.993Z,54.32
2019-04-06T18:53:06.932Z,54.49
2019-04-06T18:55:37.090Z,54.54
2019-04-06T18:58:11.224Z,54.76
2019-04-06T19:00:39.351Z,54.96
2019-04-06T19:03:14.730Z,55.11
2019-04-06T19:05:40.920Z,55.24
2019-04-06T19:08:11.053Z,55.28
2019-04-06T19:10:41.783Z,55.40
2019-04-06T19:13:12.365Z,55.56
2019-04-06T19:15:43.339Z,55.69
2019-04-06T19:18:13.491Z,55.84
2019-04-06T19:20:44.167Z,56.03
2019-04-06T19:23:13.627Z,56.17
2019-04-06T19:25:56.737Z,56.26
2019-04-06T19:28:27.965Z,56.43
2019-04-06T19:30:57.964Z,56.69
2019-04-06T19:33:28.378Z,56.78
2019-04-06T19:35:57.500Z,56.91
2019-04-06T19:38:28.865Z,57.06
2019-04-06T19:41:00.228Z,57.16
2019-04-06T19:43:31.257Z,57.29
2019-04-06T19:46:01.292Z,57.35
2019-04-06T19:48:30.084Z,57.45
2019-04-06T19:51:00.109Z,57.72
2019-04-06T19:53:33.290Z,57.83
2019-04-06T19:56:03.901Z,57.97
2019-04-06T19:58:34.670Z,58.10
2019-04-06T20:01:03.163Z,58.25
2019-04-06T20:03:37.362Z,58.39
2019-04-06T20:06:06.624Z,58.46
2019-04-06T20:08:37.270Z,58.55
2019-04-06T20:11:07.951Z,58.57
2019-04-06T20:13:38.221Z,58.68
2019-04-06T20:16:08.760Z,58.73
2019-04-06T20:18:45.274Z,58.76
2019-04-06T20:21:14.278Z,58.82
2019-04-06T20:23:44.739Z,58.80
2019-04-06T20:26:16.327Z,59.01
2019-04-06T20:28:46.939Z,59.16
2019-04-06T20:31:17.554Z,59.28
2019-04-06T20:33:51.661Z,59.37
2019-04-06T20:36:19.461Z,59.43
2019-04-06T20:38:49.694Z,59.59
2019-04-06T20:41:19.988Z,59.54
2019-04-06T20:43:50.729Z,59.65
2019-04-06T20:46:20.800Z,59.74
2019-04-06T20:48:51.173Z,59.75
2019-04-06T20:51:25.083Z,59.81
2019-04-06T20:53:55.145Z,59.78
2019-04-06T20:56:24.276Z,59.88
2019-04-06T20:58:54.878Z,60.23
2019-04-06T21:01:24.765Z,60.38
2019-04-06T21:04:01.499Z,60.38
2019-04-06T21:06:26.897Z,60.46
2019-04-06T21:08:57.455Z,60.53
2019-04-06T21:11:27.668Z,60.55
2019-04-06T21:13:58.327Z,60.59
2019-04-06T21:16:28.912Z,60.64
2019-04-06T21:18:59.103Z,60.70
2019-04-06T21:21:30.804Z,60.74
2019-04-06T21:24:01.595Z,60.89
2019-04-06T21:26:32.527Z,60.98
2019-04-06T21:29:02.626Z,61.08
2019-04-06T21:31:34.216Z,61.26
2019-04-06T21:34:10.388Z,61.35
2019-04-06T21:36:36.665Z,61.39
2019-04-06T21:39:09.753Z,61.43
2019-04-06T21:41:40.705Z,61.46
2019-04-06T21:44:11.457Z,61.54
2019-04-06T21:46:42.070Z,61.60
2019-04-06T21:49:12.275Z,61.65
2019-04-06T21:51:42.372Z,61.77
2019-04-06T21:54:12.599Z,61.85
2019-04-06T21:56:43.385Z,61.84
2019-04-06T21:59:16.082Z,61.93
2019-04-06T22:01:46.867Z,61.98
2019-04-06T22:04:23.585Z,62.05
2019-04-06T22:06:49.124Z,62.18
2019-04-06T22:09:20.030Z,62.23
2019-04-06T22:11:52.450Z,62.29
2019-04-06T22:14:23.899Z,62.44
2019-04-06T22:16:56.081Z,62.50
2019-04-06T22:19:26.850Z,62.58
2019-04-06T22:21:57.670Z,62.56
2019-04-06T22:24:27.787Z,62.63
2019-04-06T22:26:58.714Z,62.75
2019-04-06T22:29:29.010Z,62.78
2019-04-06T22:31:59.600Z,62.94
2019-04-06T22:34:38.842Z,62.99
2019-04-06T22:37:01.676Z,63.04
2019-04-06T22:39:32.683Z,63.04
2019-04-06T22:42:02.408Z,62.97
2019-04-06T22:44:33.294Z,63.05
2019-04-06T22:47:03.548Z,63.09
2019-04-06T22:49:33.881Z,63.22
2019-04-06T22:52:04.325Z,63.39
2019-04-06T22:54:34.551Z,63.81
2019-04-06T22:57:04.731Z,63.92
2019-04-06T22:59:35.045Z,63.75
2019-04-06T23:02:05.537Z,63.68
2019-04-06T23:04:54.756Z,63.68
2019-04-06T23:07:26.196Z,63.79
2019-04-06T23:09:54.824Z,63.74
2019-04-06T23:12:23.468Z,63.75
2019-04-06T23:14:52.189Z,63.86
2019-04-06T23:17:20.535Z,63.98
2019-04-06T23:19:49.642Z,64.07
2019-04-06T23:22:18.659Z,64.07
2019-04-06T23:24:47.090Z,64.14
2019-04-06T23:27:16.966Z,64.24
2019-04-06T23:29:45.754Z,64.44
2019-04-06T23:32:14.866Z,64.45
2019-04-06T23:34:43.369Z,64.47
2019-04-06T23:37:11.849Z,64.51
2019-04-06T23:39:41.233Z,64.48
2019-04-06T23:42:10.209Z,64.39
2019-04-06T23:44:38.675Z,64.41
2019-04-06T23:47:06.992Z,64.48
2019-04-06T23:49:35.600Z,64.64
2019-04-06T23:52:03.945Z,64.75
2019-04-06T23:54:32.332Z,64.87
2019-04-06T23:57:00.842Z,64.93
2019-04-06T23:59:29.217Z,64.92
